sensor_id;sensor_type;location;lat;lon;timestamp;pressure;altitude;pressure_sealevel;temperature;humidity
48204;BME280;33994;50.998;5.864;2023-03-19T00:00:39;100610.94;;;11.26;79.29
48204;BME280;33994;50.998;5.864;2023-03-19T00:03:42;100611.03;;;11.21;79.40
48204;BME280;33994;50.998;5.864;2023-03-19T00:06:45;100623.34;;;11.16;79.77
48204;BME280;33994;50.998;5.864;2023-03-19T00:09:48;100619.06;;;11.12;80.09
48204;BME280;33994;50.998;5.864;2023-03-19T00:12:52;100612.16;;;11.08;80.40
48204;BME280;33994;50.998;5.864;2023-03-19T00:15:55;100611.34;;;11.06;80.62
48204;BME280;33994;50.998;5.864;2023-03-19T00:18:59;100605.22;;;11.05;80.72
48204;BME280;33994;50.998;5.864;2023-03-19T00:22:02;100598.31;;;11.03;80.84
48204;BME280;33994;50.998;5.864;2023-03-19T00:25:05;100600.16;;;10.98;81.05
48204;BME280;33994;50.998;5.864;2023-03-19T00:28:10;100601.94;;;10.95;81.27
48204;BME280;33994;50.998;5.864;2023-03-19T00:31:15;100595.81;;;10.97;81.52
48204;BME280;33994;50.998;5.864;2023-03-19T00:34:18;100595.88;;;10.95;81.64
48204;BME280;33994;50.998;5.864;2023-03-19T00:37:21;100602.91;;;10.91;81.91
48204;BME280;33994;50.998;5.864;2023-03-19T00:40:24;100593.31;;;10.90;82.13
48204;BME280;33994;50.998;5.864;2023-03-19T00:43:29;100601.19;;;10.89;82.43
48204;BME280;33994;50.998;5.864;2023-03-19T00:46:32;100604.69;;;10.89;82.66
48204;BME280;33994;50.998;5.864;2023-03-19T00:49:35;100611.72;;;10.87;82.87
48204;BME280;33994;50.998;5.864;2023-03-19T00:52:39;100608.19;;;10.88;83.11
48204;BME280;33994;50.998;5.864;2023-03-19T00:55:42;100611.66;;;10.89;83.27
48204;BME280;33994;50.998;5.864;2023-03-19T00:58:46;100618.59;;;10.91;83.30
48204;BME280;33994;50.998;5.864;2023-03-19T01:01:50;100615.13;;;10.91;83.42
48204;BME280;33994;50.998;5.864;2023-03-19T01:04:53;100626.50;;;10.88;83.75
48204;BME280;33994;50.998;5.864;2023-03-19T01:07:56;100625.66;;;10.88;83.69
48204;BME280;33994;50.998;5.864;2023-03-19T01:11:04;100624.78;;;10.87;83.89
48204;BME280;33994;50.998;5.864;2023-03-19T01:14:08;100621.28;;;10.88;83.90
48204;BME280;33994;50.998;5.864;2023-03-19T01:17:11;100628.25;;;10.88;83.97
48204;BME280;33994;50.998;5.864;2023-03-19T01:20:14;100624.78;;;10.87;83.93
48204;BME280;33994;50.998;5.864;2023-03-19T01:23:18;100623.91;;;10.88;84.06
48204;BME280;33994;50.998;5.864;2023-03-19T01:26:20;100623.09;;;10.85;84.12
48204;BME280;33994;50.998;5.864;2023-03-19T01:29:25;100626.56;;;10.85;84.24
48204;BME280;33994;50.998;5.864;2023-03-19T01:32:28;100612.66;;;10.83;83.99
48204;BME280;33994;50.998;5.864;2023-03-19T01:35:32;100617.00;;;10.84;84.14
48204;BME280;33994;50.998;5.864;2023-03-19T01:38:35;100618.72;;;10.85;84.24
48204;BME280;33994;50.998;5.864;2023-03-19T01:41:39;100612.66;;;10.83;84.28
48204;BME280;33994;50.998;5.864;2023-03-19T01:44:44;100614.38;;;10.84;84.26
48204;BME280;33994;50.998;5.864;2023-03-19T01:47:47;100614.25;;;10.90;84.08
48204;BME280;33994;50.998;5.864;2023-03-19T01:50:50;100610.75;;;10.91;83.82
48204;BME280;33994;50.998;5.864;2023-03-19T01:53:57;100623.84;;;10.91;83.91
48204;BME280;33994;50.998;5.864;2023-03-19T01:57:04;100616.00;;;10.91;83.86
48204;BME280;33994;50.998;5.864;2023-03-19T02:00:10;100609.00;;;10.90;83.69
48204;BME280;33994;50.998;5.864;2023-03-19T02:03:14;100609.00;;;10.90;83.90
48204;BME280;33994;50.998;5.864;2023-03-19T02:06:18;100612.59;;;10.86;84.10
48204;BME280;33994;50.998;5.864;2023-03-19T02:09:23;100609.13;;;10.83;84.28
48204;BME280;33994;50.998;5.864;2023-03-19T02:12:26;100607.41;;;10.82;84.36
48204;BME280;33994;50.998;5.864;2023-03-19T02:15:31;100608.34;;;10.79;84.42
48204;BME280;33994;50.998;5.864;2023-03-19T02:18:35;100605.78;;;10.76;84.47
48204;BME280;33994;50.998;5.864;2023-03-19T02:21:38;100608.41;;;10.75;84.59
48204;BME280;33994;50.998;5.864;2023-03-19T02:24:44;100611.97;;;10.70;84.82
48204;BME280;33994;50.998;5.864;2023-03-19T02:27:53;100610.22;;;10.71;84.78
48204;BME280;33994;50.998;5.864;2023-03-19T02:30:55;100608.56;;;10.68;84.85
48204;BME280;33994;50.998;5.864;2023-03-19T02:34:00;100605.03;;;10.69;84.96
48204;BME280;33994;50.998;5.864;2023-03-19T02:37:08;100614.69;;;10.66;85.15
48204;BME280;33994;50.998;5.864;2023-03-19T02:40:17;100618.13;;;10.69;85.05
48204;BME280;33994;50.998;5.864;2023-03-19T02:43:23;100616.34;;;10.71;84.96
48204;BME280;33994;50.998;5.864;2023-03-19T02:46:26;100610.16;;;10.76;84.83
48204;BME280;33994;50.998;5.864;2023-03-19T02:49:30;100618.81;;;10.78;84.66
48204;BME280;33994;50.998;5.864;2023-03-19T02:52:33;100612.69;;;10.80;84.63
48204;BME280;33994;50.998;5.864;2023-03-19T02:55:36;100621.44;;;10.79;84.51
48204;BME280;33994;50.998;5.864;2023-03-19T02:58:41;100625.72;;;10.82;84.51
48204;BME280;33994;50.998;5.864;2023-03-19T03:01:44;100631.78;;;10.85;84.42
48204;BME280;33994;50.998;5.864;2023-03-19T03:04:47;100623.03;;;10.86;84.33
48204;BME280;33994;50.998;5.864;2023-03-19T03:07:50;100612.63;;;10.85;84.41
48204;BME280;33994;50.998;5.864;2023-03-19T03:10:53;100625.66;;;10.88;84.41
48204;BME280;33994;50.998;5.864;2023-03-19T03:13:58;100627.38;;;10.89;85.24
48204;BME280;33994;50.998;5.864;2023-03-19T03:17:01;100622.13;;;10.89;85.75
48204;BME280;33994;50.998;5.864;2023-03-19T03:20:05;100623.94;;;10.87;86.37
48204;BME280;33994;50.998;5.864;2023-03-19T03:23:09;100633.50;;;10.86;86.54
48204;BME280;33994;50.998;5.864;2023-03-19T03:26:12;100630.09;;;10.84;86.96
48204;BME280;33994;50.998;5.864;2023-03-19T03:29:19;100630.94;;;10.85;87.34
48204;BME280;33994;50.998;5.864;2023-03-19T03:32:22;100633.59;;;10.83;87.46
48204;BME280;33994;50.998;5.864;2023-03-19T03:35:26;100633.63;;;10.80;87.67
48204;BME280;33994;50.998;5.864;2023-03-19T03:38:29;100638.84;;;10.80;87.71
48204;BME280;33994;50.998;5.864;2023-03-19T03:41:32;100634.50;;;10.79;87.94
48204;BME280;33994;50.998;5.864;2023-03-19T03:44:37;100636.28;;;10.77;88.27
48204;BME280;33994;50.998;5.864;2023-03-19T03:47:40;100640.66;;;10.77;89.08
48204;BME280;33994;50.998;5.864;2023-03-19T03:50:43;100636.38;;;10.73;89.71
48204;BME280;33994;50.998;5.864;2023-03-19T03:53:46;100639.00;;;10.71;90.14
48204;BME280;33994;50.998;5.864;2023-03-19T03:56:49;100643.38;;;10.70;90.50
48204;BME280;33994;50.998;5.864;2023-03-19T03:59:53;100653.91;;;10.66;91.05
48204;BME280;33994;50.998;5.864;2023-03-19T04:02:57;100659.19;;;10.63;91.42
48204;BME280;33994;50.998;5.864;2023-03-19T04:06:00;100657.44;;;10.63;91.83
48204;BME280;33994;50.998;5.864;2023-03-19T04:09:03;100661.00;;;10.59;92.49
48204;BME280;33994;50.998;5.864;2023-03-19T04:12:06;100670.72;;;10.53;93.19
48204;BME280;33994;50.998;5.864;2023-03-19T04:15:11;100675.97;;;10.51;93.64
48204;BME280;33994;50.998;5.864;2023-03-19T04:18:14;100668.97;;;10.52;94.01
48204;BME280;33994;50.998;5.864;2023-03-19T04:21:18;100669.88;;;10.51;94.10
48204;BME280;33994;50.998;5.864;2023-03-19T04:24:21;100669.94;;;10.47;94.48
48204;BME280;33994;50.998;5.864;2023-03-19T04:27:24;100658.66;;;10.44;94.81
48204;BME280;33994;50.998;5.864;2023-03-19T04:30:28;100667.34;;;10.44;94.96
48204;BME280;33994;50.998;5.864;2023-03-19T04:33:32;100666.47;;;10.47;94.87
48204;BME280;33994;50.998;5.864;2023-03-19T04:36:36;100665.59;;;10.46;94.80
48204;BME280;33994;50.998;5.864;2023-03-19T04:39:39;100672.53;;;10.47;94.69
48204;BME280;33994;50.998;5.864;2023-03-19T04:42:41;100665.66;;;10.43;94.78
48204;BME280;33994;50.998;5.864;2023-03-19T04:45:46;100676.97;;;10.44;94.79
48204;BME280;33994;50.998;5.864;2023-03-19T04:48:49;100676.09;;;10.43;94.75
48204;BME280;33994;50.998;5.864;2023-03-19T04:51:52;100680.44;;;10.44;94.67
48204;BME280;33994;50.998;5.864;2023-03-19T04:54:55;100683.03;;;10.44;94.64
48204;BME280;33994;50.998;5.864;2023-03-19T04:57:58;100683.94;;;10.43;94.75
48204;BME280;33994;50.998;5.864;2023-03-19T05:01:03;100685.66;;;10.44;94.97
48204;BME280;33994;50.998;5.864;2023-03-19T05:04:07;100687.41;;;10.44;94.95
48204;BME280;33994;50.998;5.864;2023-03-19T05:07:10;100684.84;;;10.42;95.03
48204;BME280;33994;50.998;5.864;2023-03-19T05:10:13;100696.19;;;10.40;95.25
48204;BME280;33994;50.998;5.864;2023-03-19T05:13:16;100698.91;;;10.35;95.65
48204;BME280;33994;50.998;5.864;2023-03-19T05:16:21;100693.72;;;10.32;96.09
48204;BME280;33994;50.998;5.864;2023-03-19T05:19:25;100691.09;;;10.32;96.30
48204;BME280;33994;50.998;5.864;2023-03-19T05:22:28;100696.38;;;10.31;96.45
48204;BME280;33994;50.998;5.864;2023-03-19T05:25:32;100690.31;;;10.27;96.51
48204;BME280;33994;50.998;5.864;2023-03-19T05:28:36;100696.41;;;10.28;96.85
48204;BME280;33994;50.998;5.864;2023-03-19T05:31:41;100702.50;;;10.28;96.71
48204;BME280;33994;50.998;5.864;2023-03-19T05:34:44;100693.78;;;10.28;96.74
48204;BME280;33994;50.998;5.864;2023-03-19T05:37:47;100712.94;;;10.28;96.84
48204;BME280;33994;50.998;5.864;2023-03-19T05:40:50;100704.25;;;10.28;96.87
48204;BME280;33994;50.998;5.864;2023-03-19T05:43:53;100709.56;;;10.23;97.57
48204;BME280;33994;50.998;5.864;2023-03-19T05:46:58;100713.06;;;10.22;98.41
48204;BME280;33994;50.998;5.864;2023-03-19T05:50:01;100712.22;;;10.20;99.03
48204;BME280;33994;50.998;5.864;2023-03-19T05:53:04;100726.16;;;10.17;99.29
48204;BME280;33994;50.998;5.864;2023-03-19T05:56:07;100717.56;;;10.12;99.92
48204;BME280;33994;50.998;5.864;2023-03-19T05:59:10;100723.66;;;10.10;100.00
48204;BME280;33994;50.998;5.864;2023-03-19T06:02:14;100726.31;;;10.08;100.00
48204;BME280;33994;50.998;5.864;2023-03-19T06:05:17;100723.75;;;10.07;100.00
48204;BME280;33994;50.998;5.864;2023-03-19T06:08:20;100722.00;;;10.06;100.00
48204;BME280;33994;50.998;5.864;2023-03-19T06:11:24;100728.97;;;10.07;100.00
48204;BME280;33994;50.998;5.864;2023-03-19T06:14:27;100736.81;;;10.07;100.00
48204;BME280;33994;50.998;5.864;2023-03-19T06:17:31;100739.38;;;10.08;100.00
48204;BME280;33994;50.998;5.864;2023-03-19T06:20:35;100734.19;;;10.07;100.00
48204;BME280;33994;50.998;5.864;2023-03-19T06:23:38;100741.09;;;10.11;100.00
48204;BME280;33994;50.998;5.864;2023-03-19T06:26:41;100741.94;;;10.13;100.00
48204;BME280;33994;50.998;5.864;2023-03-19T06:29:44;100742.78;;;10.13;100.00
48204;BME280;33994;50.998;5.864;2023-03-19T06:32:49;100744.53;;;10.13;100.00
48204;BME280;33994;50.998;5.864;2023-03-19T06:35:52;100753.25;;;10.15;100.00
48204;BME280;33994;50.998;5.864;2023-03-19T06:38:55;100749.69;;;10.17;100.00
48204;BME280;33994;50.998;5.864;2023-03-19T06:41:58;100754.03;;;10.20;100.00
48204;BME280;33994;50.998;5.864;2023-03-19T06:45:01;100755.75;;;10.22;100.00
48204;BME280;33994;50.998;5.864;2023-03-19T06:48:06;100767.00;;;10.26;100.00
48204;BME280;33994;50.998;5.864;2023-03-19T06:51:09;100766.97;;;10.28;100.00
48204;BME280;33994;50.998;5.864;2023-03-19T06:54:12;100778.34;;;10.27;100.00
48204;BME280;33994;50.998;5.864;2023-03-19T06:57:15;100781.81;;;10.27;100.00
48204;BME280;33994;50.998;5.864;2023-03-19T07:00:19;100773.09;;;10.25;100.00
48204;BME280;33994;50.998;5.864;2023-03-19T07:03:23;100782.72;;;10.23;100.00
48204;BME280;33994;50.998;5.864;2023-03-19T07:06:26;100788.84;;;10.20;100.00
48204;BME280;33994;50.998;5.864;2023-03-19T07:09:29;100790.59;;;10.21;100.00
48204;BME280;33994;50.998;5.864;2023-03-19T07:12:32;100785.47;;;10.15;100.00
48204;BME280;33994;50.998;5.864;2023-03-19T07:15:35;100789.78;;;10.16;100.00
48204;BME280;33994;50.998;5.864;2023-03-19T07:18:39;100783.66;;;10.17;100.00
48204;BME280;33994;50.998;5.864;2023-03-19T07:21:42;100790.69;;;10.15;100.00
48204;BME280;33994;50.998;5.864;2023-03-19T07:24:46;100793.28;;;10.15;100.00
48204;BME280;33994;50.998;5.864;2023-03-19T07:27:48;100798.44;;;10.20;100.00
48204;BME280;33994;50.998;5.864;2023-03-19T07:30:52;100789.75;;;10.18;100.00
48204;BME280;33994;50.998;5.864;2023-03-19T07:33:56;100795.91;;;10.15;100.00
48204;BME280;33994;50.998;5.864;2023-03-19T07:36:59;100784.59;;;10.15;100.00
48204;BME280;33994;50.998;5.864;2023-03-19T07:40:03;100793.28;;;10.14;100.00
48204;BME280;33994;50.998;5.864;2023-03-19T07:43:06;100795.84;;;10.20;100.00
48204;BME280;33994;50.998;5.864;2023-03-19T07:46:09;100794.91;;;10.24;100.00
48204;BME280;33994;50.998;5.864;2023-03-19T07:49:13;100789.56;;;10.32;100.00
48204;BME280;33994;50.998;5.864;2023-03-19T07:52:16;100792.13;;;10.38;100.00
48204;BME280;33994;50.998;5.864;2023-03-19T07:55:19;100792.03;;;10.42;100.00
48204;BME280;33994;50.998;5.864;2023-03-19T07:58:22;100801.56;;;10.46;100.00
48204;BME280;33994;50.998;5.864;2023-03-19T08:01:25;100798.06;;;10.49;100.00
48204;BME280;33994;50.998;5.864;2023-03-19T08:04:30;100804.91;;;10.55;100.00
48204;BME280;33994;50.998;5.864;2023-03-19T08:07:34;100806.59;;;10.59;100.00
48204;BME280;33994;50.998;5.864;2023-03-19T08:10:37;100802.09;;;10.67;100.00
48204;BME280;33994;50.998;5.864;2023-03-19T08:13:40;100806.22;;;10.85;100.00
48204;BME280;33994;50.998;5.864;2023-03-19T08:16:44;100798.16;;;10.97;100.00
48204;BME280;33994;50.998;5.864;2023-03-19T08:19:48;100797.94;;;11.11;100.00
48204;BME280;33994;50.998;5.864;2023-03-19T08:22:52;100802.94;;;11.23;100.00
48204;BME280;33994;50.998;5.864;2023-03-19T08:25:55;100810.63;;;11.34;100.00
48204;BME280;33994;50.998;5.864;2023-03-19T08:28:58;100802.53;;;11.46;100.00
48204;BME280;33994;50.998;5.864;2023-03-19T08:32:01;100799.72;;;11.57;100.00
48204;BME280;33994;50.998;5.864;2023-03-19T08:35:07;100807.44;;;11.63;100.00
48204;BME280;33994;50.998;5.864;2023-03-19T08:38:10;100810.69;;;11.76;100.00
48204;BME280;33994;50.998;5.864;2023-03-19T08:41:13;100812.25;;;11.84;100.00
48204;BME280;33994;50.998;5.864;2023-03-19T08:44:16;100816.28;;;12.01;99.00
48204;BME280;33994;50.998;5.864;2023-03-19T08:47:20;100823.97;;;12.08;97.10
48204;BME280;33994;50.998;5.864;2023-03-19T08:50:24;100824.72;;;12.15;95.27
48204;BME280;33994;50.998;5.864;2023-03-19T08:53:28;100823.00;;;12.14;93.95
48204;BME280;33994;50.998;5.864;2023-03-19T08:56:31;100819.53;;;12.13;92.73
48204;BME280;33994;50.998;5.864;2023-03-19T08:59:34;100829.91;;;12.18;92.09
48204;BME280;33994;50.998;5.864;2023-03-19T09:02:37;100835.09;;;12.21;91.41
48204;BME280;33994;50.998;5.864;2023-03-19T09:05:42;100840.25;;;12.26;90.25
48204;BME280;33994;50.998;5.864;2023-03-19T09:08:47;100840.16;;;12.30;89.89
48204;BME280;33994;50.998;5.864;2023-03-19T09:11:50;100843.47;;;12.38;89.92
48204;BME280;33994;50.998;5.864;2023-03-19T09:14:54;100841.47;;;12.50;89.92
48204;BME280;33994;50.998;5.864;2023-03-19T09:17:57;100850.81;;;12.61;89.05
48204;BME280;33994;50.998;5.864;2023-03-19T09:21:01;100853.19;;;12.74;88.05
48204;BME280;33994;50.998;5.864;2023-03-19T09:24:05;100857.38;;;12.81;87.41
48204;BME280;33994;50.998;5.864;2023-03-19T09:27:09;100851.84;;;12.93;87.11
48204;BME280;33994;50.998;5.864;2023-03-19T09:30:13;100856.22;;;12.93;85.61
48204;BME280;33994;50.998;5.864;2023-03-19T09:33:17;100854.41;;;12.95;85.34
48204;BME280;33994;50.998;5.864;2023-03-19T09:36:22;100856.22;;;12.93;84.69
48204;BME280;33994;50.998;5.864;2023-03-19T09:39:25;100859.78;;;12.90;83.79
48204;BME280;33994;50.998;5.864;2023-03-19T09:42:40;100869.56;;;12.83;82.70
48204;BME280;33994;50.998;5.864;2023-03-19T09:45:46;100872.31;;;12.77;83.54
48204;BME280;33994;50.998;5.864;2023-03-19T09:48:52;100867.22;;;12.71;84.14
48204;BME280;33994;50.998;5.864;2023-03-19T09:52:01;100868.25;;;12.64;83.79
48204;BME280;33994;50.998;5.864;2023-03-19T09:55:20;100866.53;;;12.63;83.68
48204;BME280;33994;50.998;5.864;2023-03-19T09:58:30;100865.50;;;12.70;83.51
48204;BME280;33994;50.998;5.864;2023-03-19T10:01:35;100863.50;;;12.81;82.51
48204;BME280;33994;50.998;5.864;2023-03-19T10:04:44;100878.22;;;12.87;81.87
48204;BME280;33994;50.998;5.864;2023-03-19T10:08:07;100876.28;;;12.95;81.13
48204;BME280;33994;50.998;5.864;2023-03-19T10:11:23;100868.28;;;13.01;80.77
48204;BME280;33994;50.998;5.864;2023-03-19T10:14:47;100875.97;;;13.07;80.62
48204;BME280;33994;50.998;5.864;2023-03-19T10:17:59;100876.75;;;13.12;80.48
48204;BME280;33994;50.998;5.864;2023-03-19T10:21:05;100877.53;;;13.16;80.38
48204;BME280;33994;50.998;5.864;2023-03-19T10:24:13;100883.66;;;13.15;79.22
48204;BME280;33994;50.998;5.864;2023-03-19T10:27:19;100879.31;;;13.14;78.47
48204;BME280;33994;50.998;5.864;2023-03-19T10:30:24;100891.59;;;13.13;78.08
48204;BME280;33994;50.998;5.864;2023-03-19T10:33:34;100887.34;;;13.08;77.90
48204;BME280;33994;50.998;5.864;2023-03-19T10:36:42;100894.34;;;13.09;78.48
48204;BME280;33994;50.998;5.864;2023-03-19T10:39:47;100900.47;;;13.08;77.44
48204;BME280;33994;50.998;5.864;2023-03-19T10:43:03;100889.38;;;12.97;76.86
48204;BME280;33994;50.998;5.864;2023-03-19T10:46:11;100901.81;;;12.88;77.16
48204;BME280;33994;50.998;5.864;2023-03-19T10:49:15;100902.88;;;12.81;77.85
48204;BME280;33994;50.998;5.864;2023-03-19T10:52:20;100902.09;;;12.76;78.48
48204;BME280;33994;50.998;5.864;2023-03-19T10:55:29;100909.16;;;12.73;79.13
48204;BME280;33994;50.998;5.864;2023-03-19T10:58:34;100909.22;;;12.71;80.07
48204;BME280;33994;50.998;5.864;2023-03-19T11:01:40;100912.88;;;12.64;81.78
48204;BME280;33994;50.998;5.864;2023-03-19T11:04:43;100919.03;;;12.61;83.01
48204;BME280;33994;50.998;5.864;2023-03-19T11:07:48;100918.34;;;12.55;84.10
48204;BME280;33994;50.998;5.864;2023-03-19T11:10:53;100918.38;;;12.52;84.44
48204;BME280;33994;50.998;5.864;2023-03-19T11:13:56;100916.66;;;12.51;84.76
48204;BME280;33994;50.998;5.864;2023-03-19T11:17:03;100914.91;;;12.51;84.97
48204;BME280;33994;50.998;5.864;2023-03-19T11:20:19;100921.75;;;12.57;85.09
48204;BME280;33994;50.998;5.864;2023-03-19T11:23:26;100917.28;;;12.62;84.86
48204;BME280;33994;50.998;5.864;2023-03-19T11:26:30;100921.50;;;12.69;84.32
48204;BME280;33994;50.998;5.864;2023-03-19T11:29:36;100919.72;;;12.71;83.86
48204;BME280;33994;50.998;5.864;2023-03-19T11:33:07;100924.97;;;12.71;83.71
48204;BME280;33994;50.998;5.864;2023-03-19T11:36:20;100925.75;;;12.75;84.04
48204;BME280;33994;50.998;5.864;2023-03-19T11:39:27;100927.38;;;12.80;83.98
48204;BME280;33994;50.998;5.864;2023-03-19T11:42:43;100929.88;;;12.86;83.76
48204;BME280;33994;50.998;5.864;2023-03-19T11:45:58;100927.13;;;12.91;83.85
48204;BME280;33994;50.998;5.864;2023-03-19T11:49:26;100925.41;;;12.90;84.09
48204;BME280;33994;50.998;5.864;2023-03-19T11:52:37;100928.00;;;12.92;83.80
48204;BME280;33994;50.998;5.864;2023-03-19T11:55:47;100919.19;;;12.94;83.61
48204;BME280;33994;50.998;5.864;2023-03-19T11:59:11;100920.78;;;13.00;83.43
48204;BME280;33994;50.998;5.864;2023-03-19T12:02:31;100918.03;;;13.06;83.23
48204;BME280;33994;50.998;5.864;2023-03-19T12:05:45;100917.91;;;13.10;82.37
48204;BME280;33994;50.998;5.864;2023-03-19T12:08:56;100916.13;;;13.12;82.15
48204;BME280;33994;50.998;5.864;2023-03-19T12:12:10;100907.22;;;13.18;81.87
48204;BME280;33994;50.998;5.864;2023-03-19T12:15:25;100913.16;;;13.26;81.72
48204;BME280;33994;50.998;5.864;2023-03-19T12:18:47;100911.19;;;13.34;81.00
48204;BME280;33994;50.998;5.864;2023-03-19T12:22:05;100906.84;;;13.33;81.11
48204;BME280;33994;50.998;5.864;2023-03-19T12:25:31;100899.22;;;13.23;79.92
48204;BME280;33994;50.998;5.864;2023-03-19T12:28:40;100904.59;;;13.20;80.28
48204;BME280;33994;50.998;5.864;2023-03-19T12:31:58;100898.31;;;13.25;80.05
48204;BME280;33994;50.998;5.864;2023-03-19T12:35:10;100889.44;;;13.31;79.28
48204;BME280;33994;50.998;5.864;2023-03-19T12:38:19;100892.81;;;13.34;78.65
48204;BME280;33994;50.998;5.864;2023-03-19T12:41:23;100891.06;;;13.35;76.83
48204;BME280;33994;50.998;5.864;2023-03-19T12:44:31;100888.47;;;13.33;77.50
48204;BME280;33994;50.998;5.864;2023-03-19T12:47:39;100881.38;;;13.37;77.13
48204;BME280;33994;50.998;5.864;2023-03-19T12:50:47;100887.34;;;13.44;76.45
48204;BME280;33994;50.998;5.864;2023-03-19T12:53:53;100893.22;;;13.55;76.71
48204;BME280;33994;50.998;5.864;2023-03-19T12:57:00;100892.16;;;13.62;76.95
48204;BME280;33994;50.998;5.864;2023-03-19T13:00:08;100897.31;;;13.65;77.42
48204;BME280;33994;50.998;5.864;2023-03-19T13:03:16;100901.69;;;13.66;77.42
48204;BME280;33994;50.998;5.864;2023-03-19T13:06:25;100909.50;;;13.68;77.30
48204;BME280;33994;50.998;5.864;2023-03-19T13:09:33;100899.06;;;13.66;76.29
48204;BME280;33994;50.998;5.864;2023-03-19T13:12:39;100905.28;;;13.62;75.35
48204;BME280;33994;50.998;5.864;2023-03-19T13:15:45;100898.47;;;13.55;74.15
48204;BME280;33994;50.998;5.864;2023-03-19T13:18:58;100898.59;;;13.49;73.44
48204;BME280;33994;50.998;5.864;2023-03-19T13:22:08;100903.06;;;13.45;73.37
48204;BME280;33994;50.998;5.864;2023-03-19T13:25:15;100900.53;;;13.41;72.86
48204;BME280;33994;50.998;5.864;2023-03-19T13:28:22;100906.72;;;13.39;71.69
48204;BME280;33994;50.998;5.864;2023-03-19T13:31:33;100893.59;;;13.38;70.20
48204;BME280;33994;50.998;5.864;2023-03-19T13:34:40;100906.72;;;13.38;68.42
48204;BME280;33994;50.998;5.864;2023-03-19T13:37:44;100901.47;;;13.38;67.51
48204;BME280;33994;50.998;5.864;2023-03-19T13:40:50;100902.25;;;13.43;67.39
48204;BME280;33994;50.998;5.864;2023-03-19T13:43:54;100902.13;;;13.48;67.08
48204;BME280;33994;50.998;5.864;2023-03-19T13:46:59;100902.97;;;13.50;65.72
48204;BME280;33994;50.998;5.864;2023-03-19T13:50:21;100898.50;;;13.53;64.51
48204;BME280;33994;50.998;5.864;2023-03-19T13:53:34;100906.44;;;13.52;65.47
48204;BME280;33994;50.998;5.864;2023-03-19T13:57:05;100910.69;;;13.56;65.58
48204;BME280;33994;50.998;5.864;2023-03-19T14:00:55;100904.44;;;13.60;66.10
48204;BME280;33994;50.998;5.864;2023-03-19T14:03:59;100905.28;;;13.62;66.64
48204;BME280;33994;50.998;5.864;2023-03-19T14:07:11;100896.44;;;13.65;66.43
48204;BME280;33994;50.998;5.864;2023-03-19T14:10:24;100910.44;;;13.65;66.86
48204;BME280;33994;50.998;5.864;2023-03-19T14:13:33;100911.34;;;13.64;66.63
48204;BME280;33994;50.998;5.864;2023-03-19T14:16:41;100916.59;;;13.64;67.11
48204;BME280;33994;50.998;5.864;2023-03-19T14:19:45;100921.06;;;13.62;67.11
48204;BME280;33994;50.998;5.864;2023-03-19T14:23:00;100924.56;;;13.61;66.21
48204;BME280;33994;50.998;5.864;2023-03-19T14:26:09;100915.88;;;13.59;66.62
48204;BME280;33994;50.998;5.864;2023-03-19T14:29:15;100915.91;;;13.57;66.76
48204;BME280;33994;50.998;5.864;2023-03-19T14:32:23;100923.78;;;13.57;66.61
48204;BME280;33994;50.998;5.864;2023-03-19T14:35:27;100923.84;;;13.56;67.48
48204;BME280;33994;50.998;5.864;2023-03-19T14:38:37;100933.59;;;13.51;68.87
48204;BME280;33994;50.998;5.864;2023-03-19T14:41:43;100929.31;;;13.47;69.45
48204;BME280;33994;50.998;5.864;2023-03-19T14:45:20;100937.25;;;13.44;69.02
48204;BME280;33994;50.998;5.864;2023-03-19T14:52:22;100929.38;;;13.44;68.34
48204;BME280;33994;50.998;5.864;2023-03-19T14:55:34;100930.19;;;13.46;67.96
48204;BME280;33994;50.998;5.864;2023-03-19T14:58:46;100921.50;;;13.44;67.95
48204;BME280;33994;50.998;5.864;2023-03-19T15:01:51;100925.84;;;13.45;68.17
48204;BME280;33994;50.998;5.864;2023-03-19T15:04:55;100922.34;;;13.44;68.59
48204;BME280;33994;50.998;5.864;2023-03-19T15:08:01;100932.75;;;13.50;68.76
48204;BME280;33994;50.998;5.864;2023-03-19T15:11:19;100945.84;;;13.52;68.17
48204;BME280;33994;50.998;5.864;2023-03-19T15:14:38;100939.72;;;13.51;68.26
48204;BME280;33994;50.998;5.864;2023-03-19T15:17:45;100940.59;;;13.52;68.29
48204;BME280;33994;50.998;5.864;2023-03-19T15:20:50;100944.13;;;13.51;68.36
48204;BME280;33994;50.998;5.864;2023-03-19T15:23:54;100944.03;;;13.54;68.50
48204;BME280;33994;50.998;5.864;2023-03-19T15:26:58;100939.66;;;13.54;68.36
48204;BME280;33994;50.998;5.864;2023-03-19T15:30:01;100945.78;;;13.53;68.21
48204;BME280;33994;50.998;5.864;2023-03-19T15:33:16;100943.28;;;13.47;68.01
48204;BME280;33994;50.998;5.864;2023-03-19T15:36:23;100951.31;;;13.43;68.27
48204;BME280;33994;50.998;5.864;2023-03-19T15:39:31;100954.84;;;13.40;68.55
48204;BME280;33994;50.998;5.864;2023-03-19T15:42:38;100948.75;;;13.38;68.46
48204;BME280;33994;50.998;5.864;2023-03-19T15:45:44;100946.19;;;13.36;68.76
48204;BME280;33994;50.998;5.864;2023-03-19T15:48:52;100954.91;;;13.38;69.13
48204;BME280;33994;50.998;5.864;2023-03-19T15:51:58;100948.88;;;13.35;70.21
48204;BME280;33994;50.998;5.864;2023-03-19T15:55:04;100955.03;;;13.32;71.16
48204;BME280;33994;50.998;5.864;2023-03-19T15:58:13;100964.72;;;13.30;71.85
48204;BME280;33994;50.998;5.864;2023-03-19T16:01:18;100969.22;;;13.25;72.11
48204;BME280;33994;50.998;5.864;2023-03-19T16:04:22;100970.25;;;13.20;72.70
48204;BME280;33994;50.998;5.864;2023-03-19T16:07:35;100973.78;;;13.17;73.99
48204;BME280;33994;50.998;5.864;2023-03-19T16:10:41;100979.16;;;13.12;74.68
48204;BME280;33994;50.998;5.864;2023-03-19T16:13:54;100980.22;;;13.04;76.94